sensor_id;sensor_type;location;lat;lon;timestamp;temperature;humidity
46159;DHT22;31888;44.512;26.104;2022-09-29T00:01:11;20.90;94.90
46159;DHT22;31888;44.512;26.104;2022-09-29T00:03:18;20.80;95.30
46159;DHT22;31888;44.512;26.104;2022-09-29T00:05:23;21.00;95.00
46159;DHT22;31888;44.512;26.104;2022-09-29T00:07:27;20.90;94.80
46159;DHT22;31888;44.512;26.104;2022-09-29T00:09:33;20.80;95.40
46159;DHT22;31888;44.512;26.104;2022-09-29T00:11:38;20.80;95.20
46159;DHT22;31888;44.512;26.104;2022-09-29T00:13:42;20.80;95.10
46159;DHT22;31888;44.512;26.104;2022-09-29T00:15:55;20.90;94.90
46159;DHT22;31888;44.512;26.104;2022-09-29T00:18:00;20.90;94.70
46159;DHT22;31888;44.512;26.104;2022-09-29T00:20:17;20.90;95.00
46159;DHT22;31888;44.512;26.104;2022-09-29T00:22:22;21.10;94.70
46159;DHT22;31888;44.512;26.104;2022-09-29T00:24:26;21.20;94.50
46159;DHT22;31888;44.512;26.104;2022-09-29T00:26:31;21.20;94.50
46159;DHT22;31888;44.512;26.104;2022-09-29T00:28:36;21.20;94.70
46159;DHT22;31888;44.512;26.104;2022-09-29T00:30:41;21.10;94.60
46159;DHT22;31888;44.512;26.104;2022-09-29T00:32:45;21.00;94.70
46159;DHT22;31888;44.512;26.104;2022-09-29T00:34:49;21.00;95.00
46159;DHT22;31888;44.512;26.104;2022-09-29T00:36:55;21.00;95.00
46159;DHT22;31888;44.512;26.104;2022-09-29T00:39:00;21.10;94.90
46159;DHT22;31888;44.512;26.104;2022-09-29T00:41:05;20.90;95.10
46159;DHT22;31888;44.512;26.104;2022-09-29T00:43:14;20.60;95.80
46159;DHT22;31888;44.512;26.104;2022-09-29T00:45:23;20.80;95.50
46159;DHT22;31888;44.512;26.104;2022-09-29T00:47:29;20.90;95.20
46159;DHT22;31888;44.512;26.104;2022-09-29T00:49:39;20.80;95.50
46159;DHT22;31888;44.512;26.104;2022-09-29T00:51:50;21.10;94.80
46159;DHT22;31888;44.512;26.104;2022-09-29T00:53:59;21.40;94.50
46159;DHT22;31888;44.512;26.104;2022-09-29T00:56:08;21.50;94.30
46159;DHT22;31888;44.512;26.104;2022-09-29T00:58:20;21.40;94.40
46159;DHT22;31888;44.512;26.104;2022-09-29T01:00:28;21.30;94.60
46159;DHT22;31888;44.512;26.104;2022-09-29T01:02:35;21.30;94.60
46159;DHT22;31888;44.512;26.104;2022-09-29T01:04:41;21.40;94.50
46159;DHT22;31888;44.512;26.104;2022-09-29T01:06:49;21.20;94.30
46159;DHT22;31888;44.512;26.104;2022-09-29T01:09:00;20.50;94.80
46159;DHT22;31888;44.512;26.104;2022-09-29T01:11:05;19.80;95.90
46159;DHT22;31888;44.512;26.104;2022-09-29T01:13:10;19.30;97.20
46159;DHT22;31888;44.512;26.104;2022-09-29T01:15:17;18.70;98.40
46159;DHT22;31888;44.512;26.104;2022-09-29T01:17:58;18.40;99.20
46159;DHT22;31888;44.512;26.104;2022-09-29T01:20:08;17.90;99.90
46159;DHT22;31888;44.512;26.104;2022-09-29T01:22:28;17.70;99.90
46159;DHT22;31888;44.512;26.104;2022-09-29T01:24:54;17.50;99.90
46159;DHT22;31888;44.512;26.104;2022-09-29T01:27:23;17.50;99.90
46159;DHT22;31888;44.512;26.104;2022-09-29T01:30:07;17.60;99.90
46159;DHT22;31888;44.512;26.104;2022-09-29T01:32:19;18.00;99.90
46159;DHT22;31888;44.512;26.104;2022-09-29T01:34:33;17.90;99.90
46159;DHT22;31888;44.512;26.104;2022-09-29T01:36:48;17.70;99.90
46159;DHT22;31888;44.512;26.104;2022-09-29T01:39:01;17.50;99.90
46159;DHT22;31888;44.512;26.104;2022-09-29T01:41:13;17.40;99.90
46159;DHT22;31888;44.512;26.104;2022-09-29T01:43:23;17.20;99.90
46159;DHT22;31888;44.512;26.104;2022-09-29T01:45:32;17.10;99.90
46159;DHT22;31888;44.512;26.104;2022-09-29T01:47:41;17.00;99.90
46159;DHT22;31888;44.512;26.104;2022-09-29T01:49:50;17.00;99.90
46159;DHT22;31888;44.512;26.104;2022-09-29T01:51:59;17.40;99.90
46159;DHT22;31888;44.512;26.104;2022-09-29T01:54:09;17.70;99.90
46159;DHT22;31888;44.512;26.104;2022-09-29T01:56:15;18.00;99.90
46159;DHT22;31888;44.512;26.104;2022-09-29T01:58:24;18.70;99.90
46159;DHT22;31888;44.512;26.104;2022-09-29T02:00:34;19.00;99.80
46159;DHT22;31888;44.512;26.104;2022-09-29T02:02:46;19.20;99.30
46159;DHT22;31888;44.512;26.104;2022-09-29T02:04:55;19.20;99.70
46159;DHT22;31888;44.512;26.104;2022-09-29T02:07:04;19.40;99.20
46159;DHT22;31888;44.512;26.104;2022-09-29T02:09:12;19.80;98.40
46159;DHT22;31888;44.512;26.104;2022-09-29T02:11:17;19.90;98.00
46159;DHT22;31888;44.512;26.104;2022-09-29T02:13:22;20.30;97.20
46159;DHT22;31888;44.512;26.104;2022-09-29T02:15:32;20.60;96.80
46159;DHT22;31888;44.512;26.104;2022-09-29T02:17:41;20.80;96.20
46159;DHT22;31888;44.512;26.104;2022-09-29T02:19:49;21.00;95.70
46159;DHT22;31888;44.512;26.104;2022-09-29T02:21:54;20.90;95.60
46159;DHT22;31888;44.512;26.104;2022-09-29T02:23:59;21.00;95.70
46159;DHT22;31888;44.512;26.104;2022-09-29T02:26:04;21.00;94.20
46159;DHT22;31888;44.512;26.104;2022-09-29T02:28:08;20.40;95.00
46159;DHT22;31888;44.512;26.104;2022-09-29T02:30:13;19.90;95.90
46159;DHT22;31888;44.512;26.104;2022-09-29T02:32:18;19.30;97.30
46159;DHT22;31888;44.512;26.104;2022-09-29T02:34:24;19.00;98.90
46159;DHT22;31888;44.512;26.104;2022-09-29T02:36:35;19.40;98.60
46159;DHT22;31888;44.512;26.104;2022-09-29T02:38:48;19.10;98.10
46159;DHT22;31888;44.512;26.104;2022-09-29T02:41:00;18.30;98.60
46159;DHT22;31888;44.512;26.104;2022-09-29T02:43:20;17.70;99.90
46159;DHT22;31888;44.512;26.104;2022-09-29T02:45:36;17.30;99.90
46159;DHT22;31888;44.512;26.104;2022-09-29T02:48:11;17.50;99.90
46159;DHT22;31888;44.512;26.104;2022-09-29T02:50:33;17.40;99.90
46159;DHT22;31888;44.512;26.104;2022-09-29T02:52:45;18.00;99.90
46159;DHT22;31888;44.512;26.104;2022-09-29T02:54:59;17.70;99.90
46159;DHT22;31888;44.512;26.104;2022-09-29T02:57:16;17.20;99.90
46159;DHT22;31888;44.512;26.104;2022-09-29T02:59:25;17.00;99.90
46159;DHT22;31888;44.512;26.104;2022-09-29T03:01:31;16.70;99.90
46159;DHT22;31888;44.512;26.104;2022-09-29T03:03:36;16.60;99.90
46159;DHT22;31888;44.512;26.104;2022-09-29T03:05:41;16.80;99.90
46159;DHT22;31888;44.512;26.104;2022-09-29T03:07:46;17.00;99.90
46159;DHT22;31888;44.512;26.104;2022-09-29T03:09:50;17.30;99.90
46159;DHT22;31888;44.512;26.104;2022-09-29T03:11:55;17.70;99.90
46159;DHT22;31888;44.512;26.104;2022-09-29T03:14:00;18.10;99.90
46159;DHT22;31888;44.512;26.104;2022-09-29T03:16:05;17.80;99.90
46159;DHT22;31888;44.512;26.104;2022-09-29T03:18:10;17.50;99.90
46159;DHT22;31888;44.512;26.104;2022-09-29T03:20:14;17.40;99.90
46159;DHT22;31888;44.512;26.104;2022-09-29T03:22:20;18.00;99.90
46159;DHT22;31888;44.512;26.104;2022-09-29T03:24:25;18.40;99.90
46159;DHT22;31888;44.512;26.104;2022-09-29T03:26:34;18.80;99.80
46159;DHT22;31888;44.512;26.104;2022-09-29T03:28:39;19.20;98.80
46159;DHT22;31888;44.512;26.104;2022-09-29T03:30:44;19.50;97.20
46159;DHT22;31888;44.512;26.104;2022-09-29T03:32:49;19.40;96.70
46159;DHT22;31888;44.512;26.104;2022-09-29T03:34:53;19.10;97.70
46159;DHT22;31888;44.512;26.104;2022-09-29T03:36:58;18.70;97.40
46159;DHT22;31888;44.512;26.104;2022-09-29T03:39:04;18.90;99.00
46159;DHT22;31888;44.512;26.104;2022-09-29T03:41:08;19.40;98.30
46159;DHT22;31888;44.512;26.104;2022-09-29T03:43:12;19.70;97.70
46159;DHT22;31888;44.512;26.104;2022-09-29T03:45:16;19.60;95.30
46159;DHT22;31888;44.512;26.104;2022-09-29T03:47:21;18.70;96.60
46159;DHT22;31888;44.512;26.104;2022-09-29T03:49:26;17.90;98.10
46159;DHT22;31888;44.512;26.104;2022-09-29T03:51:30;17.10;99.40
46159;DHT22;31888;44.512;26.104;2022-09-29T03:53:34;17.20;99.90
46159;DHT22;31888;44.512;26.104;2022-09-29T03:55:43;17.80;99.90
46159;DHT22;31888;44.512;26.104;2022-09-29T03:57:48;17.90;99.00
46159;DHT22;31888;44.512;26.104;2022-09-29T03:59:52;18.00;99.90
46159;DHT22;31888;44.512;26.104;2022-09-29T04:01:58;17.50;99.00
46159;DHT22;31888;44.512;26.104;2022-09-29T04:04:02;17.20;99.80
46159;DHT22;31888;44.512;26.104;2022-09-29T04:06:07;16.90;99.90
46159;DHT22;31888;44.512;26.104;2022-09-29T04:08:11;16.70;99.90
46159;DHT22;31888;44.512;26.104;2022-09-29T04:10:16;16.50;99.90
46159;DHT22;31888;44.512;26.104;2022-09-29T04:12:21;16.40;99.90
46159;DHT22;31888;44.512;26.104;2022-09-29T04:14:26;16.80;99.90
46159;DHT22;31888;44.512;26.104;2022-09-29T04:16:30;17.50;99.90
46159;DHT22;31888;44.512;26.104;2022-09-29T04:18:35;18.10;99.90
46159;DHT22;31888;44.512;26.104;2022-09-29T04:20:40;18.30;99.80
46159;DHT22;31888;44.512;26.104;2022-09-29T04:22:44;18.50;98.80
46159;DHT22;31888;44.512;26.104;2022-09-29T04:24:49;18.30;97.70
46159;DHT22;31888;44.512;26.104;2022-09-29T04:26:53;18.30;98.80
46159;DHT22;31888;44.512;26.104;2022-09-29T04:28:59;18.60;98.30
46159;DHT22;31888;44.512;26.104;2022-09-29T04:31:04;19.20;98.30
46159;DHT22;31888;44.512;26.104;2022-09-29T04:33:09;20.40;96.20
46159;DHT22;31888;44.512;26.104;2022-09-29T04:35:13;21.30;94.30
46159;DHT22;31888;44.512;26.104;2022-09-29T04:37:18;22.10;92.90
46159;DHT22;31888;44.512;26.104;2022-09-29T04:39:22;22.40;91.50
46159;DHT22;31888;44.512;26.104;2022-09-29T04:41:26;22.90;90.90
46159;DHT22;31888;44.512;26.104;2022-09-29T04:43:31;23.50;90.30
46159;DHT22;31888;44.512;26.104;2022-09-29T04:45:37;23.80;89.20
46159;DHT22;31888;44.512;26.104;2022-09-29T04:47:41;24.20;88.00
46159;DHT22;31888;44.512;26.104;2022-09-29T04:49:46;24.40;87.10
46159;DHT22;31888;44.512;26.104;2022-09-29T04:51:50;24.50;84.70
46159;DHT22;31888;44.512;26.104;2022-09-29T04:53:54;24.50;85.00
46159;DHT22;31888;44.512;26.104;2022-09-29T04:56:04;24.40;84.30
46159;DHT22;31888;44.512;26.104;2022-09-29T04:58:09;24.10;85.10
46159;DHT22;31888;44.512;26.104;2022-09-29T05:00:14;23.60;85.60
46159;DHT22;31888;44.512;26.104;2022-09-29T05:02:21;22.70;87.10
46159;DHT22;31888;44.512;26.104;2022-09-29T05:04:26;22.00;89.70
46159;DHT22;31888;44.512;26.104;2022-09-29T05:06:31;21.50;90.40
46159;DHT22;31888;44.512;26.104;2022-09-29T05:08:35;21.10;91.70
46159;DHT22;31888;44.512;26.104;2022-09-29T05:10:40;21.20;92.10
46159;DHT22;31888;44.512;26.104;2022-09-29T05:12:48;21.90;90.80
46159;DHT22;31888;44.512;26.104;2022-09-29T05:14:53;21.80;89.70
46159;DHT22;31888;44.512;26.104;2022-09-29T05:16:58;21.60;90.50
46159;DHT22;31888;44.512;26.104;2022-09-29T05:19:04;21.80;90.80
46159;DHT22;31888;44.512;26.104;2022-09-29T05:21:09;21.70;90.50
46159;DHT22;31888;44.512;26.104;2022-09-29T05:23:31;21.50;90.90
46159;DHT22;31888;44.512;26.104;2022-09-29T05:25:35;21.60;91.50
46159;DHT22;31888;44.512;26.104;2022-09-29T05:27:40;21.70;90.70
46159;DHT22;31888;44.512;26.104;2022-09-29T05:29:44;21.60;90.70
46159;DHT22;31888;44.512;26.104;2022-09-29T05:31:49;21.80;91.00
46159;DHT22;31888;44.512;26.104;2022-09-29T05:33:54;21.90;91.30
46159;DHT22;31888;44.512;26.104;2022-09-29T05:36:02;22.10;90.90
46159;DHT22;31888;44.512;26.104;2022-09-29T05:38:09;22.10;90.40
46159;DHT22;31888;44.512;26.104;2022-09-29T05:40:13;21.60;90.60
46159;DHT22;31888;44.512;26.104;2022-09-29T05:42:17;21.20;91.40
46159;DHT22;31888;44.512;26.104;2022-09-29T05:44:22;21.10;91.50
46159;DHT22;31888;44.512;26.104;2022-09-29T05:46:27;20.90;91.80
46159;DHT22;31888;44.512;26.104;2022-09-29T05:48:31;20.60;93.00
46159;DHT22;31888;44.512;26.104;2022-09-29T05:50:36;20.20;93.10
46159;DHT22;31888;44.512;26.104;2022-09-29T05:52:44;20.40;93.80
46159;DHT22;31888;44.512;26.104;2022-09-29T05:54:51;21.00;92.90
46159;DHT22;31888;44.512;26.104;2022-09-29T05:56:55;21.50;91.50
46159;DHT22;31888;44.512;26.104;2022-09-29T05:58:59;21.60;91.40
46159;DHT22;31888;44.512;26.104;2022-09-29T06:01:05;21.60;91.10
46159;DHT22;31888;44.512;26.104;2022-09-29T06:03:09;21.50;91.50
46159;DHT22;31888;44.512;26.104;2022-09-29T06:05:14;21.70;91.30
46159;DHT22;31888;44.512;26.104;2022-09-29T06:07:18;21.60;91.40
46159;DHT22;31888;44.512;26.104;2022-09-29T06:09:24;21.30;91.20
46159;DHT22;31888;44.512;26.104;2022-09-29T06:11:29;21.40;91.50
46159;DHT22;31888;44.512;26.104;2022-09-29T06:13:36;21.60;91.30
46159;DHT22;31888;44.512;26.104;2022-09-29T06:15:41;21.80;91.20
46159;DHT22;31888;44.512;26.104;2022-09-29T06:17:46;22.20;90.80
46159;DHT22;31888;44.512;26.104;2022-09-29T06:19:50;22.40;89.90
46159;DHT22;31888;44.512;26.104;2022-09-29T06:21:55;22.20;90.10
46159;DHT22;31888;44.512;26.104;2022-09-29T06:23:59;22.00;90.30
46159;DHT22;31888;44.512;26.104;2022-09-29T06:26:07;22.10;90.70
46159;DHT22;31888;44.512;26.104;2022-09-29T06:28:12;22.30;90.10
46159;DHT22;31888;44.512;26.104;2022-09-29T06:30:16;22.50;90.30
46159;DHT22;31888;44.512;26.104;2022-09-29T06:32:20;22.60;90.30
46159;DHT22;31888;44.512;26.104;2022-09-29T06:34:25;22.80;89.10
46159;DHT22;31888;44.512;26.104;2022-09-29T06:36:31;22.80;89.70
46159;DHT22;31888;44.512;26.104;2022-09-29T06:38:54;22.80;88.10
46159;DHT22;31888;44.512;26.104;2022-09-29T06:40:58;23.10;88.30
46159;DHT22;31888;44.512;26.104;2022-09-29T06:43:04;23.60;87.90
46159;DHT22;31888;44.512;26.104;2022-09-29T06:45:10;24.40;85.30
46159;DHT22;31888;44.512;26.104;2022-09-29T06:47:15;24.90;83.80
46159;DHT22;31888;44.512;26.104;2022-09-29T06:49:20;25.30;82.70
46159;DHT22;31888;44.512;26.104;2022-09-29T06:51:25;25.60;81.80
46159;DHT22;31888;44.512;26.104;2022-09-29T06:53:44;26.00;81.30
46159;DHT22;31888;44.512;26.104;2022-09-29T06:55:51;26.20;80.10
46159;DHT22;31888;44.512;26.104;2022-09-29T06:57:56;26.50;79.50
46159;DHT22;31888;44.512;26.104;2022-09-29T07:00:08;26.70;78.00
46159;DHT22;31888;44.512;26.104;2022-09-29T07:02:13;26.60;78.50
46159;DHT22;31888;44.512;26.104;2022-09-29T07:04:18;26.40;78.70
46159;DHT22;31888;44.512;26.104;2022-09-29T07:06:23;26.70;78.90
46159;DHT22;31888;44.512;26.104;2022-09-29T07:08:27;26.80;78.30
46159;DHT22;31888;44.512;26.104;2022-09-29T07:10:33;26.90;77.50
46159;DHT22;31888;44.512;26.104;2022-09-29T07:12:38;26.80;77.60
46159;DHT22;31888;44.512;26.104;2022-09-29T07:14:42;26.50;77.60
46159;DHT22;31888;44.512;26.104;2022-09-29T07:16:49;26.40;78.20
46159;DHT22;31888;44.512;26.104;2022-09-29T07:18:53;26.30;78.90
46159;DHT22;31888;44.512;26.104;2022-09-29T07:20:57;26.20;79.40
46159;DHT22;31888;44.512;26.104;2022-09-29T07:23:02;26.20;79.40
46159;DHT22;31888;44.512;26.104;2022-09-29T07:25:06;26.00;79.50
46159;DHT22;31888;44.512;26.104;2022-09-29T07:27:11;25.80;79.40
46159;DHT22;31888;44.512;26.104;2022-09-29T07:29:15;25.90;79.60
46159;DHT22;31888;44.512;26.104;2022-09-29T07:31:20;25.70;80.30
46159;DHT22;31888;44.512;26.104;2022-09-29T07:33:27;25.60;80.50
46159;DHT22;31888;44.512;26.104;2022-09-29T07:35:40;25.60;80.20
46159;DHT22;31888;44.512;26.104;2022-09-29T07:37:50;25.50;81.00
46159;DHT22;31888;44.512;26.104;2022-09-29T07:39:54;25.50;80.70
46159;DHT22;31888;44.512;26.104;2022-09-29T07:41:59;25.50;80.40
46159;DHT22;31888;44.512;26.104;2022-09-29T07:44:06;25.50;80.60
46159;DHT22;31888;44.512;26.104;2022-09-29T07:46:11;25.70;79.50
46159;DHT22;31888;44.512;26.104;2022-09-29T07:48:16;25.90;79.60
46159;DHT22;31888;44.512;26.104;2022-09-29T07:50:22;26.00;79.40
46159;DHT22;31888;44.512;26.104;2022-09-29T07:52:26;26.40;78.90
46159;DHT22;31888;44.512;26.104;2022-09-29T07:54:31;26.50;78.50
46159;DHT22;31888;44.512;26.104;2022-09-29T07:56:36;26.90;78.20
46159;DHT22;31888;44.512;26.104;2022-09-29T07:58:41;27.40;77.30
46159;DHT22;31888;44.512;26.104;2022-09-29T08:00:45;27.80;76.40
46159;DHT22;31888;44.512;26.104;2022-09-29T08:02:58;27.90;75.50
46159;DHT22;31888;44.512;26.104;2022-09-29T08:05:05;27.60;74.40
46159;DHT22;31888;44.512;26.104;2022-09-29T08:07:12;27.60;74.60
46159;DHT22;31888;44.512;26.104;2022-09-29T08:09:16;27.50;74.40
46159;DHT22;31888;44.512;26.104;2022-09-29T08:11:24;27.40;75.00
46159;DHT22;31888;44.512;26.104;2022-09-29T08:13:34;27.60;74.60
46159;DHT22;31888;44.512;26.104;2022-09-29T08:15:39;27.90;74.30
46159;DHT22;31888;44.512;26.104;2022-09-29T08:17:43;27.90;74.20
46159;DHT22;31888;44.512;26.104;2022-09-29T08:19:49;28.00;73.40
46159;DHT22;31888;44.512;26.104;2022-09-29T08:21:53;28.30;73.00
46159;DHT22;31888;44.512;26.104;2022-09-29T08:24:00;28.60;71.70
46159;DHT22;31888;44.512;26.104;2022-09-29T08:26:07;28.80;70.90
46159;DHT22;31888;44.512;26.104;2022-09-29T08:28:12;29.00;70.40
46159;DHT22;31888;44.512;26.104;2022-09-29T08:30:30;29.20;70.40
46159;DHT22;31888;44.512;26.104;2022-09-29T08:32:34;29.40;70.20
46159;DHT22;31888;44.512;26.104;2022-09-29T08:34:39;29.20;69.60
46159;DHT22;31888;44.512;26.104;2022-09-29T08:36:44;29.00;70.30
46159;DHT22;31888;44.512;26.104;2022-09-29T08:38:50;28.50;70.50
46159;DHT22;31888;44.512;26.104;2022-09-29T08:40:57;28.20;71.80
46159;DHT22;31888;44.512;26.104;2022-09-29T08:43:10;28.30;70.80
46159;DHT22;31888;44.512;26.104;2022-09-29T08:45:39;28.40;70.80
46159;DHT22;31888;44.512;26.104;2022-09-29T08:48:04;28.30;71.00
46159;DHT22;31888;44.512;26.104;2022-09-29T08:50:26;28.40;70.60
46159;DHT22;31888;44.512;26.104;2022-09-29T08:52:36;28.70;69.70
46159;DHT22;31888;44.512;26.104;2022-09-29T08:54:56;28.60;70.20
46159;DHT22;31888;44.512;26.104;2022-09-29T08:57:16;28.80;70.30
46159;DHT22;31888;44.512;26.104;2022-09-29T08:59:21;28.70;70.20
46159;DHT22;31888;44.512;26.104;2022-09-29T09:01:32;28.50;69.80
46159;DHT22;31888;44.512;26.104;2022-09-29T09:03:58;28.60;69.80
46159;DHT22;31888;44.512;26.104;2022-09-29T09:06:18;28.70;70.20
46159;DHT22;31888;44.512;26.104;2022-09-29T09:08:40;28.60;69.70
46159;DHT22;31888;44.512;26.104;2022-09-29T09:10:51;28.70;70.00
46159;DHT22;31888;44.512;26.104;2022-09-29T09:13:19;28.70;70.20
46159;DHT22;31888;44.512;26.104;2022-09-29T09:15:36;28.20;71.20
46159;DHT22;31888;44.512;26.104;2022-09-29T09:18:03;27.90;70.60
46159;DHT22;31888;44.512;26.104;2022-09-29T09:20:15;27.60;70.80
46159;DHT22;31888;44.512;26.104;2022-09-29T09:22:23;27.60;70.70
46159;DHT22;31888;44.512;26.104;2022-09-29T09:24:32;27.50;71.80
46159;DHT22;31888;44.512;26.104;2022-09-29T09:26:41;27.30;71.80
46159;DHT22;31888;44.512;26.104;2022-09-29T09:28:50;27.20;72.40
46159;DHT22;31888;44.512;26.104;2022-09-29T09:30:58;27.00;72.70
46159;DHT22;31888;44.512;26.104;2022-09-29T09:33:08;26.90;73.50
46159;DHT22;31888;44.512;26.104;2022-09-29T09:35:33;27.00;73.00
46159;DHT22;31888;44.512;26.104;2022-09-29T09:37:47;27.00;74.00
46159;DHT22;31888;44.512;26.104;2022-09-29T09:39:56;27.20;73.20
46159;DHT22;31888;44.512;26.104;2022-09-29T09:42:11;27.20;72.10
46159;DHT22;31888;44.512;26.104;2022-09-29T09:44:23;27.40;72.10
46159;DHT22;31888;44.512;26.104;2022-09-29T09:46:31;27.50;71.50
46159;DHT22;31888;44.512;26.104;2022-09-29T09:48:42;27.50;70.90
46159;DHT22;31888;44.512;26.104;2022-09-29T09:50:48;27.80;70.70
46159;DHT22;31888;44.512;26.104;2022-09-29T09:52:58;27.90;70.50
46159;DHT22;31888;44.512;26.104;2022-09-29T09:55:08;28.00;71.00
46159;DHT22;31888;44.512;26.104;2022-09-29T09:57:44;27.60;70.90
46159;DHT22;31888;44.512;26.104;2022-09-29T10:00:02;27.40;71.80
46159;DHT22;31888;44.512;26.104;2022-09-29T10:02:16;27.10;72.90
46159;DHT22;31888;44.512;26.104;2022-09-29T10:04:22;27.10;72.90
46159;DHT22;31888;44.512;26.104;2022-09-29T10:06:28;27.10;72.90
46159;DHT22;31888;44.512;26.104;2022-09-29T10:08:34;27.20;72.30
46159;DHT22;31888;44.512;26.104;2022-09-29T10:10:42;27.50;71.30
46159;DHT22;31888;44.512;26.104;2022-09-29T10:13:03;27.60;71.40
46159;DHT22;31888;44.512;26.104;2022-09-29T10:15:18;27.80;70.80
46159;DHT22;31888;44.512;26.104;2022-09-29T10:17:28;27.80;70.60
46159;DHT22;31888;44.512;26.104;2022-09-29T10:19:52;27.80;70.40
46159;DHT22;31888;44.512;26.104;2022-09-29T10:22:11;27.90;69.90
46159;DHT22;31888;44.512;26.104;2022-09-29T10:24:23;28.10;70.30
46159;DHT22;31888;44.512;26.104;2022-09-29T10:26:37;28.20;70.50
46159;DHT22;31888;44.512;26.104;2022-09-29T10:28:44;28.20;70.70
46159;DHT22;31888;44.512;26.104;2022-09-29T10:30:53;28.20;70.60
46159;DHT22;31888;44.512;26.104;2022-09-29T10:33:01;28.10;71.10
46159;DHT22;31888;44.512;26.104;2022-09-29T10:35:18;28.20;71.40
46159;DHT22;31888;44.512;26.104;2022-09-29T10:37:31;27.90;71.00
46159;DHT22;31888;44.512;26.104;2022-09-29T10:39:39;27.90;71.50
46159;DHT22;31888;44.512;26.104;2022-09-29T10:41:50;28.10;71.50
46159;DHT22;31888;44.512;26.104;2022-09-29T10:44:18;28.10;71.20
46159;DHT22;31888;44.512;26.104;2022-09-29T10:46:53;28.00;70.10
46159;DHT22;31888;44.512;26.104;2022-09-29T10:49:15;28.00;70.00
46159;DHT22;31888;44.512;26.104;2022-09-29T10:51:23;27.80;69.70
46159;DHT22;31888;44.512;26.104;2022-09-29T10:53:33;27.90;70.40
46159;DHT22;31888;44.512;26.104;2022-09-29T10:55:46;27.80;69.80
46159;DHT22;31888;44.512;26.104;2022-09-29T10:57:53;27.90;69.20
46159;DHT22;31888;44.512;26.104;2022-09-29T10:59:58;27.90;70.20
46159;DHT22;31888;44.512;26.104;2022-09-29T11:02:19;28.00;69.90
46159;DHT22;31888;44.512;26.104;2022-09-29T11:04:27;28.00;70.30
46159;DHT22;31888;44.512;26.104;2022-09-29T11:06:34;27.90;69.40
46159;DHT22;31888;44.512;26.104;2022-09-29T11:08:56;27.90;70.00
46159;DHT22;31888;44.512;26.104;2022-09-29T11:11:06;28.00;69.00
46159;DHT22;31888;44.512;26.104;2022-09-29T11:13:33;28.10;69.50
46159;DHT22;31888;44.512;26.104;2022-09-29T11:15:39;28.10;69.60
46159;DHT22;31888;44.512;26.104;2022-09-29T11:17:50;28.10;69.70
46159;DHT22;31888;44.512;26.104;2022-09-29T11:19:57;28.10;69.90
46159;DHT22;31888;44.512;26.104;2022-09-29T11:22:24;28.00;70.10
46159;DHT22;31888;44.512;26.104;2022-09-29T11:24:44;28.00;70.60
46159;DHT22;31888;44.512;26.104;2022-09-29T11:26:55;27.90;70.00
46159;DHT22;31888;44.512;26.104;2022-09-29T11:29:11;27.80;70.60
46159;DHT22;31888;44.512;26.104;2022-09-29T11:31:37;27.70;69.90
46159;DHT22;31888;44.512;26.104;2022-09-29T11:33:50;27.70;69.40
46159;DHT22;31888;44.512;26.104;2022-09-29T11:36:02;27.70;68.90
46159;DHT22;31888;44.512;26.104;2022-09-29T11:38:35;27.80;69.00
46159;DHT22;31888;44.512;26.104;2022-09-29T11:40:52;27.80;69.60
46159;DHT22;31888;44.512;26.104;2022-09-29T11:43:08;27.80;68.70
46159;DHT22;31888;44.512;26.104;2022-09-29T11:45:20;27.80;68.30
46159;DHT22;31888;44.512;26.104;2022-09-29T11:47:51;27.90;67.90
46159;DHT22;31888;44.512;26.104;2022-09-29T11:52:43;28.00;67.00
46159;DHT22;31888;44.512;26.104;2022-09-29T11:55:14;28.10;67.60
46159;DHT22;31888;44.512;26.104;2022-09-29T11:57:32;28.30;66.60
46159;DHT22;31888;44.512;26.104;2022-09-29T11:59:55;28.50;66.40
46159;DHT22;31888;44.512;26.104;2022-09-29T12:02:24;28.50;66.20
46159;DHT22;31888;44.512;26.104;2022-09-29T12:04:39;28.50;65.30
46159;DHT22;31888;44.512;26.104;2022-09-29T12:06:54;28.60;65.60
46159;DHT22;31888;44.512;26.104;2022-09-29T12:09:14;28.70;64.50
46159;DHT22;31888;44.512;26.104;2022-09-29T12:11:26;28.70;64.70
46159;DHT22;31888;44.512;26.104;2022-09-29T12:14:00;28.70;65.90
46159;DHT22;31888;44.512;26.104;2022-09-29T12:16:11;28.50;64.40
46159;DHT22;31888;44.512;26.104;2022-09-29T12:18:20;28.30;64.70
46159;DHT22;31888;44.512;26.104;2022-09-29T12:20:28;28.20;64.50
46159;DHT22;31888;44.512;26.104;2022-09-29T12:22:34;28.20;64.70
46159;DHT22;31888;44.512;26.104;2022-09-29T12:24:44;28.40;65.30
46159;DHT22;31888;44.512;26.104;2022-09-29T12:26:50;28.50;65.00
46159;DHT22;31888;44.512;26.104;2022-09-29T12:29:00;28.50;65.00
46159;DHT22;31888;44.512;26.104;2022-09-29T12:31:09;28.50;65.00
46159;DHT22;31888;44.512;26.104;2022-09-29T12:33:20;28.60;66.10
46159;DHT22;31888;44.512;26.104;2022-09-29T12:35:28;28.50;65.60
46159;DHT22;31888;44.512;26.104;2022-09-29T12:37:39;28.60;65.90
46159;DHT22;31888;44.512;26.104;2022-09-29T12:39:52;28.60;66.00
46159;DHT22;31888;44.512;26.104;2022-09-29T12:42:19;28.60;65.60
46159;DHT22;31888;44.512;26.104;2022-09-29T12:44:29;28.60;65.50
46159;DHT22;31888;44.512;26.104;2022-09-29T12:46:35;28.70;64.60
46159;DHT22;31888;44.512;26.104;2022-09-29T12:48:48;28.90;64.50
46159;DHT22;31888;44.512;26.104;2022-09-29T12:51:00;28.80;64.20
46159;DHT22;31888;44.512;26.104;2022-09-29T12:53:06;28.70;64.80
46159;DHT22;31888;44.512;26.104;2022-09-29T12:55:18;28.60;65.60
46159;DHT22;31888;44.512;26.104;2022-09-29T12:57:30;28.60;65.90
46159;DHT22;31888;44.512;26.104;2022-09-29T12:59:39;28.50;66.40
46159;DHT22;31888;44.512;26.104;2022-09-29T13:01:46;28.50;65.40
46159;DHT22;31888;44.512;26.104;2022-09-29T13:04:38;28.40;65.10
46159;DHT22;31888;44.512;26.104;2022-09-29T13:12:19;28.10;65.70
46159;DHT22;31888;44.512;26.104;2022-09-29T13:14:41;28.00;66.10
46159;DHT22;31888;44.512;26.104;2022-09-29T13:17:02;27.80;65.80
46159;DHT22;31888;44.512;26.104;2022-09-29T13:22:12;27.60;66.10
46159;DHT22;31888;44.512;26.104;2022-09-29T13:24:33;27.70;66.40
46159;DHT22;31888;44.512;26.104;2022-09-29T13:29:37;27.80;65.60
46159;DHT22;31888;44.512;26.104;2022-09-29T13:31:44;27.80;64.90
46159;DHT22;31888;44.512;26.104;2022-09-29T13:33:52;27.80;64.40
46159;DHT22;31888;44.512;26.104;2022-09-29T13:35:57;27.90;64.20
46159;DHT22;31888;44.512;26.104;2022-09-29T13:38:03;27.90;64.30
46159;DHT22;31888;44.512;26.104;2022-09-29T13:40:17;27.90;64.00